1998 KATRINA (1998002S14151)


On this page: IBTrACS data - Map and Plots - Positions - Intensities - Original source data

Summary

Start Jan 1
End Feb 2
Basin SP
LMI 110 kt
Sources jtwc_sh
bom
nadi
wellington
neumann
In WMO? Yes
Previous storm 1998 RON (SP)
Previous in basin 1998 RON (SP)
Concurrent storms 1998 SUSAN (SP)
1998 SELWYN (SI)
1998 RON (SP)
1998 KATRINA (SP)
1998 A19798 (SI)
1998 LES (SP)
1998 TIFFANY (SI)
1998 TUI (SP)
1998 VELI (SP)
1998 URSALA (SP)
1998 WES (SP)
1998 BELTANE (SI)
Next in basin 1998 LES (SP)
Next storm 1998 A19798 (SI)

top of page IBTrACS Data: File Access

top of page HURSAT Data: File Access

Image of storm

top of page Plots:

Map of storm track will not appear if FTP is down
Time series of cyclone Maximum Sustained Wind will not appear if FTP is down
Time series of cyclone Minimum Central Pressure will not appear if FTP is down

top of page Track Data:Position

jtwc_sh bom nadi wellington neumann
Date Lat Lon Lat Lon Lat Lon Lat Lon Lat Lon
1998-01-01 12:00:00 -14.3 150.7
1998-01-01 18:00:00 -14.6 151.1
1998-01-02 00:00:00 -15.0 151.5 -15.0 152.0 -15.0 152.0 -15.0 152.0
1998-01-02 06:00:00 -15.3 152.0 -15.5 152.5 -15.5 152.5 -15.5 152.5
1998-01-02 12:00:00 -15.4 152.4 -16.0 153.3 -16.0 153.3 -16.0 153.3
1998-01-02 18:00:00 -15.5 152.7 -16.7 153.2 -16.7 153.2 -16.7 153.2
1998-01-03 00:00:00 -15.5 153.0 -16.9 152.3 -16.9 152.3 -16.9 152.3 -16.9 152.3
1998-01-03 06:00:00 -15.5 153.3 -16.4 151.9 -16.7 152.1 -16.7 152.1 -16.4 151.9
1998-01-03 12:00:00 -15.4 153.7 -15.7 151.8 -15.9 152.2 -15.9 152.2 -15.7 151.8
1998-01-03 18:00:00 -15.3 154.0 -15.1 152.3 -15.7 153.0 -15.7 153.0 -15.1 152.3
1998-01-04 00:00:00 -15.2 154.3 -14.9 152.7 -15.3 153.9 -15.3 153.9 -14.9 152.7
1998-01-04 06:00:00 -15.1 154.5 -14.9 153.1 -15.3 153.5 -15.3 153.5 -14.9 153.1
1998-01-04 12:00:00 -15.0 154.8 -14.9 153.5 -15.6 154.0 -15.6 154.0 -14.9 153.5
1998-01-04 18:00:00 -14.9 155.2 -14.9 153.8 -15.5 154.0 -15.5 154.0 -14.9 153.8
1998-01-05 00:00:00 -14.8 155.6 -15.2 154.4 -15.3 154.3 -15.3 154.3 -15.2 154.4
1998-01-05 06:00:00 -14.6 156.0 -15.4 155.1 -15.4 155.2 -15.4 155.2 -15.4 155.1
1998-01-05 12:00:00 -14.5 156.4 -15.2 155.7 -15.4 155.2 -15.4 155.2 -15.2 155.7
1998-01-05 18:00:00 -14.4 156.8 -14.8 156.4 -15.0 155.3 -15.0 155.3 -14.8 156.4
1998-01-06 00:00:00 -14.2 157.3 -14.5 156.9 -14.4 156.6 -14.4 156.6 -14.5 156.9
1998-01-06 06:00:00 -13.9 157.9 -14.2 157.5 -14.3 157.5 -14.3 157.5 -14.2 157.5
1998-01-06 12:00:00 -13.6 158.4 -13.7 158.3 -14.3 158.1 -14.3 158.1 -13.7 158.3
1998-01-06 18:00:00 -13.3 159.0 -13.2 159.0 -13.6 158.0 -13.6 158.0 -13.2 159.0
1998-01-07 00:00:00 -12.9 159.7 -12.7 159.7 -12.7 159.6 -12.7 159.6 -12.7 159.7
1998-01-07 06:00:00 -12.5 160.5 -12.6 161.0 -12.4 160.8 -12.4 160.8 -12.6 161.0
1998-01-07 12:00:00 -12.3 161.5 -12.8 161.8 -12.6 161.8 -12.6 161.8 -12.8 161.8
jtwc_sh bom nadi wellington neumann
1998-01-07 18:00:00 -12.8 162.4 -13.1 162.2 -13.1 162.4 -13.1 162.4 -13.1 162.2
1998-01-08 00:00:00 -13.5 163.0 -13.5 163.0 -13.6 163.1 -13.6 163.1 -13.5 163.0
1998-01-08 06:00:00 -14.1 163.5 -14.1 163.9 -14.2 163.7 -14.2 163.7 -14.1 163.9
1998-01-08 12:00:00 -14.5 163.9 -14.5 164.5 -14.6 164.2 -14.6 164.2 -14.5 164.5
1998-01-08 18:00:00 -14.8 164.2 -15.0 164.5 -14.9 164.5 -14.9 164.5 -15.0 164.5
1998-01-09 00:00:00 -15.1 164.5 -15.2 164.7 -15.2 164.7 -15.2 164.7 -15.2 164.7
1998-01-09 06:00:00 -15.4 164.8 -15.7 164.9 -15.6 164.9 -15.6 164.9 -15.7 164.9
1998-01-09 12:00:00 -15.5 164.8 -15.8 165.0 -15.8 165.0 -15.8 165.0 -15.8 165.0
1998-01-09 18:00:00 -15.6 164.7 -15.8 164.7 -15.6 164.7 -15.6 164.7 -15.8 164.7
1998-01-10 00:00:00 -15.6 164.4 -15.7 164.3 -15.7 164.6 -15.7 164.6 -15.7 164.3
1998-01-10 06:00:00 -15.5 164.0 -15.5 164.0 -15.7 164.0 -15.7 164.0 -15.5 164.0
1998-01-10 12:00:00 -15.3 163.4 -15.4 163.2 -15.5 163.2 -15.5 163.2 -15.4 163.2
1998-01-10 18:00:00 -15.0 162.4 -15.0 162.5 -15.1 162.6 -15.1 162.6 -15.0 162.5
1998-01-11 00:00:00 -14.8 161.7 -14.8 162.0 -14.8 161.9 -14.8 161.9 -14.8 162.0
1998-01-11 06:00:00 -14.6 161.1 -14.5 161.0 -14.6 161.0 -14.6 161.0 -14.5 161.0
1998-01-11 12:00:00 -14.3 160.6 -14.2 160.2 -14.1 160.4 -14.1 160.4 -14.2 160.2
1998-01-11 18:00:00 -13.9 160.1 -13.9 159.9 -13.9 159.8 -13.9 159.8 -13.9 159.9
1998-01-12 00:00:00 -13.5 159.7 -13.4 159.8 -13.4 159.8 -13.4 159.8 -13.4 159.8
1998-01-12 06:00:00 -13.1 159.3 -13.2 159.6 -13.4 159.4 -13.4 159.4 -13.2 159.6
1998-01-12 12:00:00 -12.9 158.9 -13.3 158.7 -12.9 158.7 -12.9 158.7 -13.3 158.7
1998-01-12 18:00:00 -13.1 158.3 -13.6 158.0 -12.9 158.5 -12.9 158.5 -13.6 158.0
1998-01-13 00:00:00 -13.5 157.3 -13.7 157.2 -13.8 157.3 -13.8 157.3 -13.7 157.2
1998-01-13 06:00:00 -13.7 156.2 -13.9 156.3 -13.9 156.2 -13.9 156.2 -13.9 156.3
1998-01-13 12:00:00 -13.7 155.1 -13.8 155.4 -13.8 154.9 -13.8 154.9 -13.8 155.4
jtwc_sh bom nadi wellington neumann
1998-01-13 18:00:00 -13.7 154.1 -13.7 154.3 -13.7 154.0 -13.7 154.0 -13.7 154.3
1998-01-14 00:00:00 -13.6 153.0 -13.7 153.3 -13.5 153.4 -13.5 153.4 -13.7 153.3
1998-01-14 06:00:00 -13.6 152.1 -13.6 152.4 -13.6 152.4 -13.6 152.4
1998-01-14 12:00:00 -13.5 151.4 -13.6 151.6 -13.6 151.6 -13.6 151.6
1998-01-14 18:00:00 -13.5 150.8 -13.7 150.2 -13.6 150.8 -13.7 150.2
1998-01-15 00:00:00 -13.5 150.3 -13.7 150.2 -13.7 150.2 -13.7 150.2
1998-01-15 06:00:00 -13.7 150.0 -13.6 150.0 -13.8 150.0 -13.6 150.0
1998-01-15 12:00:00 -14.0 149.8 -14.0 149.7 -14.0 149.7 -14.0 149.7
1998-01-15 18:00:00 -14.4 149.5 -14.5 149.4 -14.5 149.4 -14.5 149.4
1998-01-16 00:00:00 -14.8 149.3 -15.1 149.1 -15.1 149.1 -15.1 149.1
1998-01-16 06:00:00 -15.2 149.2 -15.3 149.2 -15.3 149.2 -15.3 149.2
1998-01-16 12:00:00 -15.5 149.1 -15.7 149.0 -15.7 149.0 -15.7 149.0
1998-01-16 18:00:00 -15.8 149.1 -15.8 149.0 -15.8 149.0 -15.8 149.0
1998-01-17 00:00:00 -16.1 149.0 -16.1 148.9 -16.1 148.9 -16.1 148.9
1998-01-17 06:00:00 -16.2 148.7 -16.4 148.6 -16.4 148.6 -16.4 148.6
1998-01-17 12:00:00 -16.3 148.5 -16.6 148.3 -16.6 148.3 -16.6 148.3
1998-01-17 18:00:00 -16.5 148.4 -16.3 148.4 -16.3 148.4 -16.3 148.4
1998-01-18 00:00:00 -16.6 148.5 -16.6 149.0 -16.6 149.0 -16.6 149.0
1998-01-18 06:00:00 -16.7 148.7 -16.7 149.3 -16.7 149.3 -16.7 149.3
1998-01-18 12:00:00 -16.7 149.3 -16.7 149.7 -16.7 149.7 -16.7 149.7
1998-01-18 18:00:00 -16.8 149.6 -16.8 149.9 -16.8 149.9 -16.8 149.9
1998-01-19 00:00:00 -17.0 150.1 -17.1 150.1 -17.1 150.1 -17.1 150.1
1998-01-19 06:00:00 -17.3 150.7 -17.3 150.8 -17.3 150.8 -17.3 150.8
1998-01-19 12:00:00 -17.7 151.5 -17.6 151.5 -17.6 151.5 -17.6 151.5
jtwc_sh bom nadi wellington neumann
1998-01-19 18:00:00 -18.1 152.2 -17.9 152.1 -17.9 152.1 -17.9 152.1
1998-01-20 00:00:00 -18.6 152.9 -18.4 152.6 -18.4 152.6 -18.4 152.6
1998-01-20 06:00:00 -19.2 153.4 -19.4 153.0 -19.4 153.0 -19.4 153.0
1998-01-20 12:00:00 -20.0 153.8 -20.1 154.0 -20.1 154.0 -20.1 154.0
1998-01-20 18:00:00 -20.4 154.0 -20.5 154.0 -20.5 154.0 -20.5 154.0
1998-01-21 00:00:00 -20.7 154.1 -21.0 154.1 -21.0 154.1 -21.0 154.1
1998-01-21 06:00:00 -21.0 154.3 -21.5 154.5 -21.5 154.5 -21.5 154.5
1998-01-21 12:00:00 -21.4 154.5 -21.9 154.9 -21.9 154.9 -21.9 154.9
1998-01-21 18:00:00 -21.7 154.8 -21.9 155.2 -21.9 155.2 -21.9 155.2
1998-01-22 00:00:00 -21.9 155.1 -22.0 155.4 -22.0 155.4 -22.0 155.4
1998-01-22 06:00:00 -21.9 155.4 -21.8 155.9 -21.8 155.9 -21.8 155.9
1998-01-22 12:00:00 -21.6 155.6 -21.6 156.1 -21.6 156.1 -21.6 156.1
1998-01-22 18:00:00 -21.0 155.8 -21.0 156.2 -21.0 156.2 -21.0 156.2
1998-01-23 00:00:00 -20.3 155.8 -20.4 156.1 -20.4 156.1 -20.4 156.1
1998-01-23 06:00:00 -19.5 155.6 -19.7 155.2 -19.7 155.2 -19.7 155.2
1998-01-23 12:00:00 -18.7 155.2 -19.0 154.8 -19.0 154.8 -19.0 154.8
1998-01-23 18:00:00 -18.3 154.5 -18.5 154.4 -18.5 154.4 -18.5 154.4
1998-01-24 00:00:00 -18.2 153.7 -18.1 153.9 -18.1 153.9 -18.1 153.9
1998-01-24 06:00:00 -18.2 153.1 -18.0 153.1 -18.0 153.1 -18.0 153.1
1998-01-24 12:00:00 -18.2 152.6 -17.9 152.5
1998-01-24 18:00:00 -18.2 152.3 -17.9 152.3
1998-01-25 00:00:00 -18.2 152.1 -18.1 152.1
1998-01-25 06:00:00 -18.3 151.8 -18.1 151.9
1998-01-25 12:00:00 -18.4 151.6 -18.1 151.8
jtwc_sh bom nadi wellington neumann
1998-01-25 18:00:00 -18.4 151.5 -18.1 151.7
1998-01-26 00:00:00 -18.4 151.4 -18.0 151.6
1998-01-26 06:00:00 -18.4 151.2 -18.0 151.4
1998-01-26 12:00:00 -18.4 151.0 -18.0 151.3
1998-01-26 18:00:00 -18.4 150.9
1998-01-27 00:00:00 -18.5 150.7
1998-01-27 06:00:00 -18.6 150.4
1998-01-27 12:00:00 -18.7 150.1
1998-01-27 18:00:00 -18.8 149.9
1998-01-28 00:00:00 -18.9 149.6
1998-01-28 06:00:00 -18.9 149.3
1998-01-28 12:00:00 -18.6 148.9
1998-01-28 18:00:00 -18.1 148.4
1998-01-29 00:00:00 -17.6 148.0
1998-01-29 06:00:00 -16.8 147.3
1998-01-29 12:00:00 -16.1 147.2
1998-01-29 18:00:00 -15.3 147.3
1998-01-30 00:00:00 -14.7 147.3
1998-01-30 06:00:00 -14.2 147.1
1998-01-30 12:00:00 -13.9 147.0
1998-01-30 18:00:00 -13.6 146.9
1998-01-31 00:00:00 -13.4 146.7
1998-01-31 06:00:00 -13.1 146.4
1998-01-31 12:00:00 -12.9 146.1
jtwc_sh bom nadi wellington neumann
1998-01-31 18:00:00 -12.7 145.8
1998-02-01 00:00:00 -12.5 145.3
1998-02-01 06:00:00 -12.4 144.9
1998-02-01 12:00:00 -12.3 144.5
1998-02-01 18:00:00 -12.2 144.2
1998-02-02 00:00:00 -12.2 143.9
1998-02-02 06:00:00 -12.2 143.6

top of pageTrack Data:Intensity

jtwc_sh bom nadi wellington neumann
Date Wind Pres Wind Pres Wind Pres Wind Pres Wind Pres
1998-01-01 12:00:00 20.
1998-01-01 18:00:00 20.
1998-01-02 00:00:00 25. 41. 1001. 30. 997. 25. 1001.
1998-01-02 06:00:00 25. 41. 1000. 30. 997. 30. 1000.
1998-01-02 12:00:00 30. 41. 1000. 30. 997. 30. 1000.
1998-01-02 18:00:00 35. 41. 998. 30. 997. 35. 998.
1998-01-03 00:00:00 40. 41. 995. 35. 995. 35. 995. 40. 995.
1998-01-03 06:00:00 40. 41. 995. 35. 995. 35. 995. 40. 995.
1998-01-03 12:00:00 45. 41. 995. 35. 995. 35. 995. 40. 995.
1998-01-03 18:00:00 55. 45. 990. 40. 990. 40. 990. 45. 990.
1998-01-04 00:00:00 55. 45. 990. 40. 990. 40. 990. 45. 990.
1998-01-04 06:00:00 55. 45. 990. 40. 990. 40. 990. 45. 990.
1998-01-04 12:00:00 50. 45. 990. 40. 990. 40. 990. 45. 990.
1998-01-04 18:00:00 50. 45. 990. 40. 990. 40. 990. 45. 990.
1998-01-05 00:00:00 50. 45. 990. 40. 990. 40. 990. 45. 990.
1998-01-05 06:00:00 50. 45. 990. 40. 990. 40. 990. 45. 990.
1998-01-05 12:00:00 50. 45. 990. 40. 990. 40. 990. 45. 990.
1998-01-05 18:00:00 50. 51. 990. 50. 985. 50. 985. 45. 990.
1998-01-06 00:00:00 40. 51. 990. 50. 985. 50. 985. 45. 990.
1998-01-06 06:00:00 40. 51. 990. 40. 990. 40. 990. 45. 990.
1998-01-06 12:00:00 40. 45. 990. 40. 990. 40. 990. 45. 990.
1998-01-06 18:00:00 40. 45. 985. 45. 987. 45. 987. 55. 985.
1998-01-07 00:00:00 45. 54. 980. 50. 985. 50. 985. 60. 980.
1998-01-07 06:00:00 45. 60. 975. 50. 985. 50. 985. 70. 975.
1998-01-07 12:00:00 55. 60. 975. 55. 980. 55. 980. 70. 975.
jtwc_sh bom nadi wellington neumann
1998-01-07 18:00:00 55. 60. 975. 55. 980. 55. 980. 70. 975.
1998-01-08 00:00:00 65. 60. 975. 60. 975. 60. 975. 70. 975.
1998-01-08 06:00:00 65. 60. 975. 60. 975. 60. 975. 70. 975.
1998-01-08 12:00:00 75. 60. 975. 60. 975. 60. 975. 70. 975.
1998-01-08 18:00:00 80. 60. 975. 65. 970. 65. 970. 70. 975.
1998-01-09 00:00:00 80. 64. 970. 70. 965. 70. 965. 75. 970.
1998-01-09 06:00:00 85. 64. 970. 75. 960. 75. 960. 75. 970.
1998-01-09 12:00:00 85. 70. 965. 75. 960. 75. 960. 80. 965.
1998-01-09 18:00:00 90. 80. 960. 80. 955. 80. 955. 85. 960.
1998-01-10 00:00:00 90. 80. 955. 80. 955. 80. 955. 95. 955.
1998-01-10 06:00:00 90. 80. 950. 80. 950. 80. 950. 100. 950.
1998-01-10 12:00:00 90. 80. 950. 80. 950. 80. 950. 100. 950.
1998-01-10 18:00:00 90. 76. 955. 80. 955. 80. 955. 95. 955.
1998-01-11 00:00:00 90. 76. 960. 75. 960. 75. 960. 85. 960.
1998-01-11 06:00:00 85. 70. 965. 70. 965. 70. 965. 80. 965.
1998-01-11 12:00:00 80. 64. 970. 65. 970. 65. 970. 75. 970.
1998-01-11 18:00:00 80. 64. 970. 65. 970. 65. 970. 75. 970.
1998-01-12 00:00:00 80. 64. 970. 65. 970. 65. 970. 75. 970.
1998-01-12 06:00:00 80. 64. 970. 65. 970. 65. 970. 75. 970.
1998-01-12 12:00:00 70. 64. 970. 65. 970. 65. 970. 75. 970.
1998-01-12 18:00:00 65. 64. 970. 65. 970. 65. 970. 75. 970.
1998-01-13 00:00:00 65. 64. 970. 65. 970. 65. 970. 75. 970.
1998-01-13 06:00:00 65. 64. 970. 65. 970. 65. 970. 75. 970.
1998-01-13 12:00:00 65. 64. 970. 65. 970. 65. 970. 75. 970.
jtwc_sh bom nadi wellington neumann
1998-01-13 18:00:00 65. 64. 970. 65. 970. 65. 970. 75. 970.
1998-01-14 00:00:00 65. 64. 970. 65. 970. 65. 970. 75. 970.
1998-01-14 06:00:00 70. 64. 970. 60. 975. 75. 970.
1998-01-14 12:00:00 70. 64. 970. 65. 970. 75. 970.
1998-01-14 18:00:00 70. 80. 955. 70. 965. 95. 955.
1998-01-15 00:00:00 75. 80. 955. 75. 960. 95. 955.
1998-01-15 06:00:00 90. 86. 945. 80. 955. 105. 945.
1998-01-15 12:00:00 90. 89. 940. 90. 940. 110. 940.
1998-01-15 18:00:00 85. 89. 940. 90. 940. 110. 940.
1998-01-16 00:00:00 85. 89. 940. 90. 940. 110. 940.
1998-01-16 06:00:00 85. 86. 950. 80. 955. 100. 950.
1998-01-16 12:00:00 85. 80. 960. 75. 960. 85. 960.
1998-01-16 18:00:00 85. 80. 965. 70. 965. 80. 965.
1998-01-17 00:00:00 75. 64. 970. 65. 970. 75. 970.
1998-01-17 06:00:00 70. 54. 980. 60. 975. 60. 980.
1998-01-17 12:00:00 65. 54. 980. 55. 980. 60. 980.
1998-01-17 18:00:00 55. 54. 985. 55. 980. 55. 985.
1998-01-18 00:00:00 55. 51. 985. 55. 980. 55. 985.
1998-01-18 06:00:00 55. 51. 985. 55. 980. 55. 985.
1998-01-18 12:00:00 55. 51. 985. 55. 980. 55. 985.
1998-01-18 18:00:00 55. 54. 980. 55. 980. 60. 980.
1998-01-19 00:00:00 55. 54. 980. 55. 980. 60. 980.
1998-01-19 06:00:00 55. 54. 980. 55. 980. 60. 980.
1998-01-19 12:00:00 55. 54. 980. 55. 980. 60. 980.
jtwc_sh bom nadi wellington neumann
1998-01-19 18:00:00 60. 54. 980. 55. 980. 60. 980.
1998-01-20 00:00:00 65. 54. 980. 55. 980. 60. 980.
1998-01-20 06:00:00 65. 64. 970. 55. 980. 75. 970.
1998-01-20 12:00:00 65. 64. 970. 55. 980. 75. 970.
1998-01-20 18:00:00 55. 51. 980. 55. 980. 60. 980.
1998-01-21 00:00:00 50. 51. 980. 55. 980. 60. 980.
1998-01-21 06:00:00 50. 45. 980. 55. 980. 60. 980.
1998-01-21 12:00:00 45. 45. 985. 55. 980. 55. 985.
1998-01-21 18:00:00 45. 51. 985. 55. 980. 55. 985.
1998-01-22 00:00:00 45. 51. 985. 55. 980. 55. 985.
1998-01-22 06:00:00 40. 45. 990. 40. 990. 45. 990.
1998-01-22 12:00:00 40. 45. 990. 40. 990. 45. 990.
1998-01-22 18:00:00 40. 45. 990. 40. 990. 45. 990.
1998-01-23 00:00:00 40. 45. 990. 40. 990. 45. 990.
1998-01-23 06:00:00 40. 41. 990. 40. 990. 45. 990.
1998-01-23 12:00:00 35. 41. 990. 40. 990. 45. 990.
1998-01-23 18:00:00 35. 41. 990. 40. 990. 45. 990.
1998-01-24 00:00:00 35. 41. 995. 40. 990. 40. 995.
1998-01-24 06:00:00 30. 41. 995. 35. 995. 40. 995.
1998-01-24 12:00:00 30. 30. 997.
1998-01-24 18:00:00 30. 30. 997.
1998-01-25 00:00:00 25. 30. 997.
1998-01-25 06:00:00 25. 30. 997.
1998-01-25 12:00:00 25. 30. 997.
jtwc_sh bom nadi wellington neumann
1998-01-25 18:00:00 25. 30. 997.
1998-01-26 00:00:00 25. 30. 997.
1998-01-26 06:00:00 25. 30. 997.
1998-01-26 12:00:00 25. 30. 997.
1998-01-26 18:00:00 25.
1998-01-27 00:00:00 25.
1998-01-27 06:00:00 25.
1998-01-27 12:00:00 25.
1998-01-27 18:00:00 25.
1998-01-28 00:00:00 25.
1998-01-28 06:00:00 25.
1998-01-28 12:00:00 25.
1998-01-28 18:00:00 25.
1998-01-29 00:00:00 25.
1998-01-29 06:00:00 25.
1998-01-29 12:00:00 25.
1998-01-29 18:00:00 25.
1998-01-30 00:00:00 25.
1998-01-30 06:00:00 25.
1998-01-30 12:00:00 25.
1998-01-30 18:00:00 25.
1998-01-31 00:00:00 25.
1998-01-31 06:00:00 25.
1998-01-31 12:00:00 25.
jtwc_sh bom nadi wellington neumann
1998-01-31 18:00:00 25.
1998-02-01 00:00:00 20.
1998-02-01 06:00:00 20.
1998-02-01 12:00:00 20.
1998-02-01 18:00:00 20.
1998-02-02 00:00:00 20.
1998-02-02 06:00:00 20.

top of page Links to source data

Source Source file Format
jtwc_sh bsh121998.txt ATCF
bom Newcyclonedatabase-08repair.csv:Line=18493:KATRINA CSV file (from Excel file)
nadi RSMC-Nadi-1997-98-BT-Data.txt:Line=148:KATRINA Text table
wellington TC_BT_1967_2006.csv:Line=5805:KATRINA Text table
neumann tracks.sh:Storm=1114:KATRINA:BSH121998:BM869 HURDAT